Time;durP1;ratioP1;P1;durP2;ratioP2;P2;SDS_P1;SDS_P2;PMS_P1;PMS_P2;Temp;Humidity;BMP_temperature;BMP_pressure;BME280_temperature;BME280_humidity;BME280_pressure;Samples;Min_cycle;Max_cycle;Signal;HPM_P1;HPM_P2
2023/10/27 00:01:49;;;;;;;23.60;7.10;;;;;;;16.57;55.09;96912.14;67917;1273;1016167;-67
2023/10/27 00:04:51;;;;;;;21.80;6.90;;;;;;;16.39;55.52;96920.83;67907;1273;1016306;-66
2023/10/27 00:07:53;;;;;;;32.50;12.30;;;;;;;16.56;55.44;96925.77;67878;1273;1016167;-66
2023/10/27 00:10:56;;;;;;;27.50;10.00;;;;;;;16.62;55.62;96930.34;67889;1273;1016154;-68
2023/10/27 00:13:58;;;;;;;27.20;9.30;;;;;;;16.60;55.66;96928.40;67917;1273;1016684;-68
2023/10/27 00:17:01;;;;;;;31.70;10.10;;;;;;;16.80;55.28;96917.31;67941;1273;1016392;-66
2023/10/27 00:20:03;;;;;;;23.10;8.10;;;;;;;16.76;54.78;96896.24;67884;1273;1016273;-68
2023/10/27 00:23:05;;;;;;;24.10;8.60;;;;;;;16.55;54.97;96896.19;67893;1273;1016418;-68
2023/10/27 00:26:08;;;;;;;25.90;9.50;;;;;;;16.54;55.50;96898.46;67870;1273;1016039;-64
2023/10/27 00:29:10;;;;;;;26.00;8.30;;;;;;;16.64;55.37;96894.52;67879;1273;1016358;-68
2023/10/27 00:32:12;;;;;;;22.60;8.10;;;;;;;16.55;55.87;96890.97;67921;1273;1016256;-68
2023/10/27 00:35:15;;;;;;;28.20;10.80;;;;;;;16.68;55.64;96884.83;67906;1273;1016447;-64
2023/10/27 00:38:17;;;;;;;25.40;9.20;;;;;;;16.78;55.47;96887.91;67867;1273;1016363;-67
2023/10/27 00:41:20;;;;;;;28.10;11.40;;;;;;;16.86;55.22;96889.59;67878;1273;1016406;-68
2023/10/27 00:44:22;;;;;;;26.40;8.80;;;;;;;16.54;55.72;96889.45;67880;1273;1020063;-69
2023/10/27 00:47:25;;;;;;;;;;;;;;;16.66;55.48;96889.81;67948;1273;1016443;-65
2023/10/27 00:50:27;;;;;;;23.50;7.00;;;;;;;16.67;55.17;96897.48;67937;1273;1018697;-68
2023/10/27 00:53:30;;;;;;;25.30;8.00;;;;;;;16.50;55.85;96904.01;67873;1273;1016462;-64
2023/10/27 00:56:32;;;;;;;23.70;8.20;;;;;;;16.46;56.21;96911.05;67888;1273;1015753;-68
2023/10/27 00:59:36;;;;;;;25.10;8.00;;;;;;;16.40;56.46;96911.20;67896;1273;1016184;-63
2023/10/27 01:02:38;;;;;;;22.70;7.70;;;;;;;16.39;56.51;96900.81;67920;1273;1016327;-67
2023/10/27 01:05:41;;;;;;;26.50;7.90;;;;;;;16.51;56.02;96893.52;67927;1273;1016454;-64
2023/10/27 01:08:43;;;;;;;24.60;7.60;;;;;;;16.50;56.08;96890.45;67910;1273;1016396;-64
2023/10/27 01:11:46;;;;;;;22.10;7.40;;;;;;;16.41;56.39;96891.24;67873;1273;1016241;-67
2023/10/27 01:14:48;;;;;;;23.60;7.60;;;;;;;16.70;55.70;96891.10;67881;1273;1016514;-68
2023/10/27 01:17:50;;;;;;;21.60;7.10;;;;;;;16.50;55.70;96895.58;67796;1273;1152089;-66
2023/10/27 01:20:53;;;;;;;23.70;8.40;;;;;;;16.61;55.68;96902.44;67904;1273;1016467;-67
2023/10/27 01:23:55;;;;;;;27.10;9.80;;;;;;;16.75;55.56;96900.23;67919;1273;1016355;-65
2023/10/27 01:26:57;;;;;;;27.20;10.20;;;;;;;16.72;55.56;96901.96;67896;1273;1015900;-67
2023/10/27 01:30:00;;;;;;;26.60;9.60;;;;;;;16.64;56.02;96897.77;67907;1273;1016467;-67
2023/10/27 01:33:02;;;;;;;25.10;10.10;;;;;;;16.71;55.89;96897.41;67878;1257;1015863;-69
2023/10/27 01:36:05;;;;;;;24.90;8.30;;;;;;;16.70;56.06;96893.98;67923;1273;1016476;-65
2023/10/27 01:39:07;;;;;;;26.70;10.00;;;;;;;16.53;55.96;96890.02;67912;1273;1016490;-68
2023/10/27 01:42:09;;;;;;;29.20;9.40;;;;;;;16.24;56.56;96892.14;67938;1273;1016194;-66
2023/10/27 01:45:13;;;;;;;21.90;7.60;;;;;;;16.15;56.53;96886.31;67884;1273;1016160;-63
2023/10/27 01:48:15;;;;;;;25.60;9.90;;;;;;;16.24;56.39;96878.87;67927;1273;1016438;-68
2023/10/27 01:51:18;;;;;;;28.30;10.90;;;;;;;16.34;56.74;96877.45;67862;1273;1016410;-64
2023/10/27 01:54:20;;;;;;;26.40;10.60;;;;;;;16.40;57.08;96877.59;67903;1273;1016478;-67
2023/10/27 01:57:23;;;;;;;30.10;11.80;;;;;;;16.50;56.93;96869.40;67888;1273;1016502;-64
2023/10/27 02:00:25;;;;;;;;;;;;;;;16.52;56.87;96854.94;67937;1273;1016358;-66
2023/10/27 02:03:27;;;;;;;35.70;14.30;;;;;;;16.46;57.11;96849.84;67916;1273;1016454;-66
2023/10/27 02:06:30;;;;;;;28.50;12.00;;;;;;;16.41;57.04;96851.83;67896;1273;1016576;-66
2023/10/27 02:09:32;;;;;;;29.40;11.40;;;;;;;16.42;57.06;96854.48;67894;1251;1017538;-67
2023/10/27 02:12:35;;;;;;;23.80;9.30;;;;;;;16.58;56.48;96849.50;67876;1273;1016436;-68
2023/10/27 02:15:37;;;;;;;25.30;8.70;;;;;;;16.63;55.81;96845.37;67873;1273;1016716;-67
2023/10/27 02:18:40;;;;;;;27.60;11.20;;;;;;;16.52;55.55;96843.33;67948;1273;1016348;-65
2023/10/27 02:21:42;;;;;;;31.00;10.80;;;;;;;16.40;56.05;96841.98;67938;1257;1016306;-69
2023/10/27 02:24:44;;;;;;;29.70;10.70;;;;;;;16.41;56.11;96845.05;67905;1273;1016367;-65
2023/10/27 02:27:47;;;;;;;33.30;14.00;;;;;;;16.45;56.47;96842.36;67907;1273;1016208;-68
2023/10/27 02:30:49;;;;;;;31.50;12.20;;;;;;;16.49;56.35;96840.96;67918;1273;1016275;-69
2023/10/27 02:33:52;;;;;;;29.30;11.00;;;;;;;16.52;56.34;96834.66;67887;1273;1016080;-66
2023/10/27 02:36:54;;;;;;;26.00;9.60;;;;;;;16.62;56.07;96838.39;67958;1273;1015872;-61
2023/10/27 02:39:56;;;;;;;28.00;9.00;;;;;;;16.54;56.02;96839.46;67933;1273;1016332;-66
2023/10/27 02:42:59;;;;;;;23.40;8.50;;;;;;;16.57;56.07;96832.14;67934;1273;1016479;-68
2023/10/27 02:46:01;;;;;;;26.70;10.20;;;;;;;16.56;55.83;96828.83;67906;1273;1016376;-68
2023/10/27 02:49:04;;;;;;;26.20;9.80;;;;;;;16.56;55.90;96830.79;67930;1273;1015972;-68
2023/10/27 02:52:06;;;;;;;29.40;10.20;;;;;;;16.54;55.90;96827.21;67942;1273;1016242;-68
2023/10/27 02:55:09;;;;;;;28.90;8.70;;;;;;;16.52;55.95;96826.65;67952;1273;1016406;-68
2023/10/27 02:58:11;;;;;;;28.50;10.10;;;;;;;16.40;56.22;96827.16;67953;1273;1017067;-68
2023/10/27 03:01:15;;;;;;;27.30;9.70;;;;;;;16.36;56.39;96828.55;67894;1273;1016420;-68
2023/10/27 03:04:19;;;;;;;29.50;10.20;;;;;;;16.38;56.18;96820.06;67886;1273;1016443;-68
2023/10/27 03:07:21;;;;;;;28.00;10.40;;;;;;;16.31;56.05;96816.55;67901;1273;1016102;-68
2023/10/27 03:10:23;;;;;;;25.20;10.00;;;;;;;16.11;56.16;96816.59;67869;1273;1016237;-69
2023/10/27 03:13:26;;;;;;;27.70;10.90;;;;;;;16.07;56.23;96816.92;67896;1273;1016493;-68
2023/10/27 03:16:28;;;;;;;26.60;10.00;;;;;;;16.06;56.03;96812.99;67913;1273;1020105;-67
2023/10/27 03:19:31;;;;;;;29.10;11.50;;;;;;;15.96;56.14;96812.91;67945;1273;1016494;-68
2023/10/27 03:22:33;;;;;;;27.50;10.40;;;;;;;15.87;56.17;96821.50;67923;1273;1016193;-68
2023/10/27 03:25:36;;;;;;;39.60;16.30;;;;;;;15.76;56.25;96822.30;67870;1273;1016530;-69
2023/10/27 03:28:38;;;;;;;44.00;18.30;;;;;;;15.61;56.23;96821.08;67922;1273;1016408;-69
2023/10/27 03:31:41;;;;;;;32.20;12.60;;;;;;;15.40;56.34;96819.86;67913;1273;1016396;-68
2023/10/27 03:34:45;;;;;;;42.90;19.70;;;;;;;15.39;56.19;96815.65;67925;1273;1016455;-66
2023/10/27 03:37:48;;;;;;;74.20;33.80;;;;;;;15.34;56.17;96813.89;67903;1273;1016322;-68
2023/10/27 03:40:50;;;;;;;43.70;20.40;;;;;;;15.36;56.35;96807.84;67898;1252;1016284;-66
2023/10/27 03:43:52;;;;;;;33.90;15.00;;;;;;;15.30;56.14;96800.93;67855;1273;1016348;-68
2023/10/27 03:46:55;;;;;;;31.60;12.30;;;;;;;15.20;56.19;96803.65;67940;1273;1019669;-68
2023/10/27 03:49:58;;;;;;;26.40;11.00;;;;;;;14.79;56.60;96801.10;67905;1273;1016340;-68
2023/10/27 03:53:00;;;;;;;31.10;12.70;;;;;;;14.60;56.74;96805.08;67913;1273;1016044;-66
2023/10/27 03:56:02;;;;;;;31.60;12.80;;;;;;;14.45;57.39;96809.52;67913;1273;1016578;-68
2023/10/27 03:59:05;;;;;;;20.70;7.60;;;;;;;14.26;57.54;96805.16;67930;1273;1016636;-67
2023/10/27 04:02:08;;;;;;;25.70;9.80;;;;;;;14.36;57.73;96803.86;67850;1273;1016823;-68
2023/10/27 04:05:10;;;;;;;26.10;11.00;;;;;;;14.59;56.91;96797.70;67865;1258;1016264;-68
2023/10/27 04:08:13;;;;;;;34.00;13.30;;;;;;;14.56;56.78;96792.69;67892;1273;1016487;-64
2023/10/27 04:11:15;;;;;;;28.00;12.50;;;;;;;14.51;56.73;96789.83;67961;1273;1016395;-65
2023/10/27 04:14:18;;;;;;;30.60;13.00;;;;;;;14.49;56.71;96799.98;67927;1273;1016694;-66
2023/10/27 04:17:20;;;;;;;29.80;12.50;;;;;;;14.26;56.77;96799.00;67910;1273;1016471;-65
2023/10/27 04:20:23;;;;;;;30.50;13.10;;;;;;;14.13;56.67;96797.33;67942;1273;1016401;-66
2023/10/27 04:23:25;;;;;;;31.50;13.70;;;;;;;14.11;56.43;96795.94;67961;1273;1016325;-68
2023/10/27 04:26:28;;;;;;;29.60;12.70;;;;;;;14.09;56.67;96793.60;67920;1273;1016549;-66
2023/10/27 04:29:31;;;;;;;28.40;10.70;;;;;;;14.19;56.30;96792.67;67874;1273;1018531;-62
2023/10/27 04:32:33;;;;;;;26.50;11.40;;;;;;;14.01;56.21;96793.70;67921;1273;1016314;-67
2023/10/27 04:35:36;;;;;;;25.80;9.40;;;;;;;13.78;56.22;96790.73;67944;1273;1016399;-64
2023/10/27 04:38:38;;;;;;;24.40;9.50;;;;;;;13.76;56.23;96796.23;67858;1273;1016463;-68
2023/10/27 04:41:40;;;;;;;25.30;8.90;;;;;;;13.81;56.35;96793.86;67875;1273;1016388;-69
2023/10/27 04:44:43;;;;;;;27.90;10.70;;;;;;;13.58;55.93;96786.45;67889;1273;1016454;-65
2023/10/27 04:47:46;;;;;;;28.60;12.20;;;;;;;13.43;56.17;96779.60;67889;1273;1016462;-66
2023/10/27 04:50:48;;;;;;;30.00;12.10;;;;;;;13.43;56.43;96786.63;67884;1273;1016137;-64
2023/10/27 04:53:50;;;;;;;33.40;14.30;;;;;;;13.33;56.39;96788.52;67877;1273;1016237;-62
2023/10/27 04:56:53;;;;;;;30.50;11.80;;;;;;;13.28;56.72;96780.80;67942;1273;1016846;-67
2023/10/27 04:59:56;;;;;;;28.40;12.20;;;;;;;13.29;56.41;96774.19;67915;1273;1016941;-68
2023/10/27 05:02:58;;;;;;;30.00;12.70;;;;;;;13.28;56.48;96778.50;67894;1273;1016749;-65
2023/10/27 05:06:01;;;;;;;31.90;12.90;;;;;;;13.41;56.49;96786.91;67882;1273;1016041;-67
2023/10/27 05:09:03;;;;;;;28.30;12.40;;;;;;;13.39;56.94;96784.57;67931;1273;1016495;-61
2023/10/27 05:12:06;;;;;;;;;;;;;;;13.36;56.67;96769.48;67914;1273;1018516;-68
2023/10/27 05:15:08;;;;;;;68.40;22.00;;;;;;;13.17;56.85;96764.64;67898;1273;1016358;-64
2023/10/27 05:18:11;;;;;;;23.70;8.10;;;;;;;12.91;57.05;96764.13;67866;1273;1016314;-66
2023/10/27 05:21:13;;;;;;;23.70;8.80;;;;;;;12.65;56.86;96761.51;67860;1273;1016512;-63
2023/10/27 05:24:15;;;;;;;22.70;9.20;;;;;;;12.52;57.32;96760.70;67920;1273;1016668;-66
2023/10/27 05:27:18;;;;;;;24.20;8.10;;;;;;;12.44;57.53;96760.31;67942;1273;1016070;-64
2023/10/27 05:30:21;;;;;;;24.90;8.60;;;;;;;12.48;57.28;96764.42;67891;1273;1016315;-66
2023/10/27 05:33:23;;;;;;;45.20;15.30;;;;;;;12.48;57.70;96770.73;67908;1273;1016408;-63
2023/10/27 05:36:26;;;;;;;39.80;14.10;;;;;;;12.60;57.67;96779.58;67925;1273;1016403;-64
2023/10/27 05:39:28;;;;;;;36.60;13.50;;;;;;;12.73;57.47;96782.64;67923;1273;1016371;-65
2023/10/27 05:42:30;;;;;;;31.60;12.60;;;;;;;12.81;57.52;96788.95;67866;1273;1016413;-64
2023/10/27 05:45:33;;;;;;;28.10;12.00;;;;;;;12.97;57.28;96783.95;67870;1273;1016520;-62
2023/10/27 05:48:35;;;;;;;38.50;13.40;;;;;;;12.98;56.84;96781.80;67895;1273;1016483;-64
2023/10/27 05:51:38;;;;;;;31.20;11.40;;;;;;;12.93;56.85;96783.77;67888;1273;1016433;-69
2023/10/27 05:54:43;;;;;;;25.70;9.90;;;;;;;13.03;56.82;96778.55;67879;1273;1016280;-68
2023/10/27 05:57:45;;;;;;;27.80;9.90;;;;;;;13.18;56.40;96780.48;67903;1273;1016304;-66
2023/10/27 06:00:47;;;;;;;27.60;10.50;;;;;;;13.21;56.35;96784.49;67920;1273;1016673;-67
2023/10/27 06:03:50;;;;;;;29.30;11.90;;;;;;;13.46;56.55;96777.77;67946;1273;1016370;-61
2023/10/27 06:06:52;;;;;;;29.30;11.60;;;;;;;13.68;55.95;96773.30;67915;1251;1016208;-67
2023/10/27 06:09:55;;;;;;;28.00;10.00;;;;;;;13.72;56.31;96770.13;67903;1273;1016469;-64
2023/10/27 06:12:57;;;;;;;25.40;10.60;;;;;;;13.80;55.99;96766.05;67837;1273;1016354;-67
2023/10/27 06:15:59;;;;;;;26.40;9.30;;;;;;;13.75;56.36;96764.31;67897;1273;1016696;-66
2023/10/27 06:19:03;;;;;;;25.80;9.80;;;;;;;13.84;56.17;96764.77;67924;1273;1018499;-67
2023/10/27 06:22:06;;;;;;;23.20;9.20;;;;;;;13.93;56.19;96766.42;67880;1273;1016374;-69
2023/10/27 06:25:09;;;;;;;23.70;9.80;;;;;;;14.04;56.13;96766.69;67931;1273;1016278;-69
2023/10/27 06:28:12;;;;;;;31.40;11.20;;;;;;;14.13;56.26;96765.89;67936;1273;1016502;-67
2023/10/27 06:31:14;;;;;;;31.70;11.90;;;;;;;14.26;56.07;96769.73;67940;1273;1016760;-69
2023/10/27 06:34:17;;;;;;;27.10;9.70;;;;;;;14.30;56.10;96770.50;67898;1273;1016461;-68
2023/10/27 06:37:19;;;;;;;42.30;14.90;;;;;;;14.36;55.93;96770.27;67917;1273;1016364;-68
2023/10/27 06:40:22;;;;;;;38.00;14.10;;;;;;;14.44;55.86;96769.80;67901;1273;1016438;-69
2023/10/27 06:43:25;;;;;;;30.10;12.40;;;;;;;14.41;56.10;96770.83;67882;1273;1016308;-69
2023/10/27 06:46:27;;;;;;;31.30;12.50;;;;;;;14.51;56.38;96766.73;67894;1273;1016458;-68
2023/10/27 06:49:30;;;;;;;42.40;17.00;;;;;;;14.67;56.52;96772.04;67920;1273;1016585;-69
2023/10/27 06:52:32;;;;;;;41.60;17.00;;;;;;;14.89;56.61;96776.42;67908;1273;1016851;-69
2023/10/27 06:55:34;;;;;;;33.50;15.10;;;;;;;15.02;56.83;96774.81;67913;1273;1016324;-68
2023/10/27 06:58:37;;;;;;;35.40;15.20;;;;;;;15.13;56.81;96775.20;67892;1273;1016477;-69
2023/10/27 07:01:39;;;;;;;37.70;16.30;;;;;;;15.15;57.44;96780.94;67874;1273;1016350;-69
2023/10/27 07:04:42;;;;;;;33.90;15.70;;;;;;;15.43;57.19;96781.88;67928;1273;1016410;-69
2023/10/27 07:07:44;;;;;;;33.40;15.50;;;;;;;15.62;57.10;96784.84;67928;1273;1016292;-68
2023/10/27 07:10:47;;;;;;;37.20;16.50;;;;;;;15.82;56.98;96776.92;67895;1273;1016426;-67
2023/10/27 07:13:49;;;;;;;33.90;16.60;;;;;;;15.93;56.73;96765.08;67900;1273;1016230;-68
2023/10/27 07:16:54;;;;;;;29.60;13.60;;;;;;;15.94;56.66;96760.08;67909;1273;1016322;-68
2023/10/27 07:19:57;;;;;;;31.00;14.30;;;;;;;15.75;56.72;96756.23;67903;1273;1016308;-69
2023/10/27 07:22:59;;;;;;;31.30;15.50;;;;;;;15.67;57.21;96755.02;67858;1273;1016310;-67
2023/10/27 07:26:03;;;;;;;31.10;14.70;;;;;;;15.87;57.22;96753.27;67907;1273;1016452;-66
2023/10/27 07:29:05;;;;;;;31.30;14.80;;;;;;;15.94;57.49;96756.55;67827;1273;1016402;-68
2023/10/27 07:32:07;;;;;;;35.20;16.10;;;;;;;16.13;57.08;96755.05;67846;1273;1016314;-68
2023/10/27 07:35:10;;;;;;;30.40;14.10;;;;;;;16.24;57.16;96756.05;67921;1273;1016601;-67
2023/10/27 07:38:12;;;;;;;34.80;14.90;;;;;;;16.36;57.14;96760.14;67888;1273;1016438;-68
2023/10/27 07:41:14;;;;;;;34.70;15.10;;;;;;;16.46;56.97;96761.02;67903;1273;1016904;-68
2023/10/27 07:44:17;;;;;;;36.20;15.80;;;;;;;16.62;57.20;96767.35;67878;1273;1016184;-68
2023/10/27 07:47:19;;;;;;;38.00;17.70;;;;;;;16.80;56.92;96768.83;67905;1273;1016403;-68
2023/10/27 07:50:22;;;;;;;32.80;14.80;;;;;;;16.95;56.91;96772.39;67906;1273;1016396;-67
2023/10/27 07:53:25;;;;;;;36.20;15.60;;;;;;;17.05;56.71;96766.84;67922;1273;1015871;-68
2023/10/27 07:56:27;;;;;;;35.50;16.90;;;;;;;17.24;57.01;96765.69;67887;1273;1016380;-68
2023/10/27 07:59:29;;;;;;;35.70;15.40;;;;;;;17.42;56.87;96763.91;67883;1273;1016579;-68
2023/10/27 08:02:33;;;;;;;31.60;15.00;;;;;;;17.60;56.59;96762.16;67936;1273;1016384;-68
2023/10/27 08:05:35;;;;;;;32.90;15.20;;;;;;;17.78;56.22;96755.20;67868;1273;1018836;-68
2023/10/27 08:08:38;;;;;;;35.20;15.10;;;;;;;17.99;55.89;96750.06;67936;1273;1016374;-66
2023/10/27 08:11:40;;;;;;;34.70;14.80;;;;;;;18.10;55.73;96740.81;67915;1273;1016435;-67
2023/10/27 08:14:44;;;;;;;32.40;14.30;;;;;;;18.26;55.92;96738.57;67911;1273;1018213;-68
2023/10/27 08:17:46;;;;;;;31.80;14.60;;;;;;;18.43;55.60;96737.17;67911;1273;1017034;-68
2023/10/27 08:20:50;;;;;;;33.20;13.70;;;;;;;18.63;55.52;96738.93;67903;1273;1016388;-68
2023/10/27 08:23:52;;;;;;;31.60;14.40;;;;;;;18.81;55.43;96743.33;67925;1273;1015949;-66
2023/10/27 08:26:55;;;;;;;31.30;14.10;;;;;;;18.96;55.12;96738.27;67911;1273;1016403;-68
2023/10/27 08:29:57;;;;;;;30.20;14.20;;;;;;;19.15;55.04;96736.41;67883;1273;1016224;-68
2023/10/27 08:32:59;;;;;;;33.60;15.80;;;;;;;19.28;55.05;96731.68;67916;1273;1018014;-68
2023/10/27 08:36:03;;;;;;;34.00;14.60;;;;;;;19.35;55.21;96732.00;67870;1273;1016179;-68
2023/10/27 08:39:05;;;;;;;31.00;14.10;;;;;;;19.42;55.54;96728.70;67845;1273;1015999;-68
2023/10/27 08:42:08;;;;;;;31.00;14.20;;;;;;;19.55;55.46;96722.98;67894;1273;1016270;-63
2023/10/27 08:45:10;;;;;;;31.50;14.40;;;;;;;19.65;54.88;96717.33;67891;1273;1016265;-67
2023/10/27 08:48:13;;;;;;;31.30;14.20;;;;;;;19.75;54.92;96717.95;67895;1273;1016562;-67
2023/10/27 08:51:15;;;;;;;30.40;13.50;;;;;;;19.90;54.88;96708.86;67945;1273;1016373;-68
2023/10/27 08:54:19;;;;;;;;;;;;;;;20.01;54.45;96703.71;67875;1273;1016561;-68
2023/10/27 08:57:22;;;;;;;32.30;14.20;;;;;;;19.99;54.22;96697.98;67853;1273;1016470;-66
2023/10/27 09:00:24;;;;;;;31.90;14.90;;;;;;;19.87;54.35;96697.98;67910;1273;1017815;-67
2023/10/27 09:03:28;;;;;;;34.10;15.50;;;;;;;19.78;54.96;96694.58;67905;1273;1016593;-68
2023/10/27 09:06:30;;;;;;;32.30;14.10;;;;;;;19.80;54.97;96693.52;67931;1273;1016188;-67
2023/10/27 09:09:33;;;;;;;33.20;14.00;;;;;;;19.84;54.96;96691.46;67920;1273;1016409;-68
2023/10/27 09:12:37;;;;;;;27.60;13.20;;;;;;;19.90;54.79;96691.88;67918;1273;1015721;-68
2023/10/27 09:15:40;;;;;;;29.30;13.20;;;;;;;19.92;54.62;96688.10;67876;1273;1016341;-68
2023/10/27 09:18:42;;;;;;;33.60;14.20;;;;;;;19.84;54.97;96678.70;67856;1273;1018829;-69
2023/10/27 09:21:45;;;;;;;31.00;13.30;;;;;;;19.79;54.49;96675.08;67889;1273;1015914;-68
2023/10/27 09:24:47;;;;;;;;;;;;;;;19.85;55.03;96671.33;67921;1273;1018763;-66
2023/10/27 09:27:52;;;;;;;31.70;13.80;;;;;;;19.98;54.55;96670.11;67859;1273;1017287;-68
2023/10/27 09:30:54;;;;;;;28.60;12.90;;;;;;;19.93;54.52;96670.44;67890;1273;1016506;-66
2023/10/27 09:33:57;;;;;;;27.30;13.20;;;;;;;19.91;54.88;96674.20;67933;1273;1018180;-66
2023/10/27 09:36:59;;;;;;;29.00;12.90;;;;;;;20.05;54.72;96682.05;67920;1273;1016486;-65
2023/10/27 09:40:02;;;;;;;;;;;;;;;20.13;54.89;96678.39;67911;1273;1016161;-65
2023/10/27 09:43:04;;;;;;;27.70;12.40;;;;;;;20.18;54.62;96669.54;67868;1273;1016502;-68
2023/10/27 09:46:07;;;;;;;29.30;12.20;;;;;;;20.21;54.38;96663.36;67954;1273;1016263;-68
2023/10/27 09:49:09;;;;;;;29.10;12.30;;;;;;;19.95;54.19;96657.58;67923;1273;1016322;-68
2023/10/27 09:52:12;;;;;;;;;;;;;;;19.79;54.71;96656.06;67884;1273;1016516;-66
2023/10/27 09:55:14;;;;;;;28.30;11.70;;;;;;;19.86;54.78;96650.58;67831;1273;1016451;-66
2023/10/27 09:58:17;;;;;;;39.70;16.30;;;;;;;19.81;54.83;96649.80;67900;1273;1016579;-67
2023/10/27 10:01:19;;;;;;;28.20;12.90;;;;;;;19.79;55.07;96643.46;67897;1273;1016173;-66
2023/10/27 10:04:21;;;;;;;30.00;12.70;;;;;;;19.63;54.74;96637.06;67955;1273;1016409;-68
2023/10/27 10:07:24;;;;;;;30.40;12.50;;;;;;;19.67;55.24;96638.09;67928;1273;1018960;-68
2023/10/27 10:10:29;;;;;;;31.30;13.10;;;;;;;19.79;55.52;96642.52;67884;1273;1018255;-67
2023/10/27 10:13:31;;;;;;;31.10;13.60;;;;;;;20.04;55.20;96644.40;67910;1273;1016356;-65
2023/10/27 10:16:33;;;;;;;33.00;13.20;;;;;;;20.16;54.53;96642.81;67892;1273;1018127;-68
2023/10/27 10:19:36;;;;;;;32.00;14.20;;;;;;;19.99;54.69;96638.67;67914;1273;1016284;-68
2023/10/27 10:22:38;;;;;;;29.50;13.50;;;;;;;20.02;54.66;96630.73;67847;1273;1016432;-68
2023/10/27 10:25:40;;;;;;;34.70;14.70;;;;;;;19.89;54.70;96628.33;67885;1273;1016420;-68
2023/10/27 10:28:46;;;;;;;34.70;14.10;;;;;;;19.78;54.89;96617.17;67890;1273;1018934;-68
2023/10/27 10:31:49;;;;;;;31.20;14.30;;;;;;;19.63;54.98;96614.41;67927;1273;1016384;-69
2023/10/27 10:34:51;;;;;;;30.70;13.40;;;;;;;19.54;55.31;96608.88;67880;1273;1016470;-68
2023/10/27 10:37:54;;;;;;;29.10;12.80;;;;;;;19.80;54.75;96598.98;67947;1273;1016215;-68
2023/10/27 10:40:57;;;;;;;31.30;13.20;;;;;;;19.82;54.28;96595.23;67891;1273;1016681;-68
2023/10/27 10:44:00;;;;;;;31.20;13.60;;;;;;;19.77;54.59;96590.09;67930;1273;1015919;-68
2023/10/27 10:47:04;;;;;;;29.50;13.20;;;;;;;19.85;54.87;96588.35;67934;1273;1016327;-68
2023/10/27 10:50:08;;;;;;;30.30;12.20;;;;;;;19.76;54.19;96579.66;67868;1273;1016383;-68
2023/10/27 10:53:11;;;;;;;30.10;12.60;;;;;;;19.63;54.17;96574.63;67883;1273;1016204;-68
2023/10/27 10:56:14;;;;;;;26.90;11.50;;;;;;;19.56;54.32;96569.24;67954;1273;1016381;-68
2023/10/27 10:59:16;;;;;;;27.80;11.50;;;;;;;19.66;54.49;96566.73;67912;1273;1018896;-68
2023/10/27 11:02:18;;;;;;;27.90;12.20;;;;;;;19.49;54.37;96563.06;67923;1273;1016460;-69
2023/10/27 11:05:21;;;;;;;30.30;12.90;;;;;;;19.42;54.79;96558.00;67862;1273;1016806;-68
2023/10/27 11:08:23;;;;;;;34.60;13.80;;;;;;;19.33;55.02;96549.25;67883;1273;1016401;-68
2023/10/27 11:11:26;;;;;;;37.20;13.70;;;;;;;19.24;54.98;96547.45;67879;1273;1016050;-68
2023/10/27 11:14:28;;;;;;;;;;;;;;;19.06;55.44;96544.01;67913;1273;1016474;-67
2023/10/27 11:17:30;;;;;;;38.70;14.70;;;;;;;19.10;55.39;96546.13;67911;1273;1015953;-68
2023/10/27 11:20:33;;;;;;;41.00;15.60;;;;;;;19.14;55.60;96541.85;67857;1273;1016467;-66
2023/10/27 11:23:35;;;;;;;43.10;16.30;;;;;;;19.28;55.51;96535.71;67896;1273;1016279;-68
2023/10/27 11:26:37;;;;;;;43.20;15.00;;;;;;;19.23;55.90;96531.44;67884;1273;1016417;-68
2023/10/27 11:29:40;;;;;;;44.60;14.90;;;;;;;19.21;55.84;96530.08;67923;1273;1017281;-68
2023/10/27 11:32:43;;;;;;;44.40;15.80;;;;;;;19.16;55.69;96524.92;67896;1273;1018372;-68
2023/10/27 11:35:45;;;;;;;49.90;16.70;;;;;;;19.24;55.88;96520.60;67857;1273;1016433;-68
2023/10/27 11:38:48;;;;;;;45.40;16.20;;;;;;;19.24;56.00;96520.06;67836;1273;1016461;-67
2023/10/27 11:41:50;;;;;;;50.10;16.20;;;;;;;19.26;55.96;96512.50;67946;1273;1016742;-66
2023/10/27 11:44:52;;;;;;;42.10;15.50;;;;;;;19.17;55.88;96512.17;67929;1273;1017324;-65
2023/10/27 11:47:55;;;;;;;35.20;13.10;;;;;;;19.19;55.72;96508.73;67948;1273;1016163;-67
2023/10/27 11:50:57;;;;;;;41.70;13.20;;;;;;;19.04;56.21;96502.23;67896;1273;1015770;-68
2023/10/27 11:54:00;;;;;;;37.20;13.80;;;;;;;19.07;56.64;96502.77;67873;1273;1016673;-68
2023/10/27 11:57:03;;;;;;;38.80;14.30;;;;;;;19.15;56.57;96498.61;67918;1273;1016448;-65
2023/10/27 12:00:08;;;;;;;38.90;13.00;;;;;;;19.12;56.63;96496.35;67911;1273;1016320;-67
2023/10/27 12:03:11;;;;;;;39.60;13.30;;;;;;;19.02;56.93;96495.79;67931;1273;1016325;-67
2023/10/27 12:06:13;;;;;;;;;;;;;;;19.15;56.62;96492.59;67918;1273;1016376;-68
2023/10/27 12:09:16;;;;;;;39.30;13.30;;;;;;;19.07;56.72;96493.01;67905;1273;1016596;-68
2023/10/27 12:12:19;;;;;;;44.10;14.80;;;;;;;18.87;57.62;96489.59;67921;1273;1016429;-68
2023/10/27 12:15:22;;;;;;;43.80;14.90;;;;;;;18.82;57.93;96491.09;67911;1273;1019483;-68
2023/10/27 12:18:25;;;;;;;43.00;15.30;;;;;;;18.80;57.78;96489.73;67938;1273;1016278;-67
2023/10/27 12:21:27;;;;;;;45.00;16.10;;;;;;;18.82;58.12;96490.75;67928;1273;1016629;-67
2023/10/27 12:24:31;;;;;;;;;;;;;;;18.80;58.08;96488.05;67886;1273;1016000;-67
2023/10/27 12:27:34;;;;;;;42.10;15.90;;;;;;;18.77;58.30;96483.60;67875;1273;1016406;-66
2023/10/27 12:30:36;;;;;;;43.60;16.90;;;;;;;18.70;58.52;96479.91;67891;1273;1016039;-67
2023/10/27 12:33:39;;;;;;;;;;;;;;;18.62;58.64;96483.38;67931;1273;1018332;-66
2023/10/27 12:36:41;;;;;;;39.30;16.50;;;;;;;18.58;58.90;96484.18;67896;1273;1016426;-67
2023/10/27 12:39:43;;;;;;;44.00;17.30;;;;;;;18.63;58.84;96485.17;67870;1273;1018038;-67
2023/10/27 12:42:46;;;;;;;42.20;17.40;;;;;;;18.57;58.97;96480.63;67876;1273;1016336;-67
2023/10/27 12:45:48;;;;;;;36.40;15.80;;;;;;;18.60;58.91;96482.52;67876;1273;1016426;-67
2023/10/27 12:48:51;;;;;;;36.00;15.60;;;;;;;18.57;59.11;96482.55;67902;1273;1017029;-68
2023/10/27 12:51:53;;;;;;;36.00;16.40;;;;;;;18.72;58.99;96481.23;67906;1273;1016287;-67
2023/10/27 12:54:56;;;;;;;40.90;15.80;;;;;;;19.04;58.26;96480.45;67872;1273;1016735;-68
2023/10/27 12:57:59;;;;;;;37.20;17.00;;;;;;;18.91;58.55;96481.72;67920;1273;1016479;-68
2023/10/27 13:01:01;;;;;;;;;;;;;;;18.75;58.77;96480.70;67892;1273;1016097;-67
2023/10/27 13:04:04;;;;;;;38.80;18.20;;;;;;;18.68;59.18;96478.12;67867;1250;1016163;-67
2023/10/27 13:07:07;;;;;;;37.50;17.00;;;;;;;18.56;59.39;96475.97;67847;1273;1016454;-68
2023/10/27 13:10:10;;;;;;;38.80;18.40;;;;;;;18.56;59.37;96472.95;67873;1273;1015771;-67
2023/10/27 13:13:13;;;;;;;37.70;17.90;;;;;;;18.50;59.77;96470.90;67900;1273;1016438;-68
2023/10/27 13:16:16;;;;;;;38.30;18.40;;;;;;;18.44;59.86;96466.92;67888;1273;1016497;-68
2023/10/27 13:19:18;;;;;;;36.10;17.90;;;;;;;18.55;59.61;96461.80;67901;1273;1016228;-67
2023/10/27 13:22:25;;;;;;;36.50;17.70;;;;;;;18.47;59.88;96459.14;67914;1273;1016227;-67
2023/10/27 13:25:28;;;;;;;36.20;17.70;;;;;;;18.49;60.02;96454.08;67871;1273;1016469;-67
2023/10/27 13:28:31;;;;;;;35.60;16.70;;;;;;;18.49;60.30;96450.84;67929;1273;1016444;-68
2023/10/27 13:31:33;;;;;;;37.30;16.70;;;;;;;18.41;60.37;96446.23;67939;1273;1016426;-67
2023/10/27 13:34:36;;;;;;;35.50;16.30;;;;;;;18.38;60.62;96446.99;67931;1273;1016480;-68
2023/10/27 13:37:38;;;;;;;33.00;14.30;;;;;;;18.35;60.67;96443.80;67896;1273;1016394;-68
2023/10/27 13:40:41;;;;;;;;;;;;;;;18.28;60.53;96439.98;67936;1273;1015995;-68
2023/10/27 13:43:43;;;;;;;32.40;14.00;;;;;;;18.24;60.85;96437.33;67902;1273;1016161;-64
2023/10/27 13:46:46;;;;;;;33.00;13.50;;;;;;;18.20;60.95;96433.27;67940;1273;1016417;-67